createdAt,value
2018-10-17T00:02:54.576Z,28.03
2018-10-17T00:07:57.864Z,23.83
2018-10-17T00:13:01.194Z,21.90
2018-10-17T00:18:04.659Z,20.43
2018-10-17T00:23:08.126Z,26.80
2018-10-17T00:28:11.419Z,23.30
2018-10-17T00:33:14.711Z,22.43
2018-10-17T00:38:18.023Z,27.30
2018-10-17T00:43:21.325Z,23.63
2018-10-17T00:48:24.643Z,23.60
2018-10-17T00:53:27.985Z,24.20
2018-10-17T00:58:31.314Z,21.97
2018-10-17T01:03:34.691Z,22.43
2018-10-17T01:08:38.046Z,22.63
2018-10-17T01:13:41.411Z,23.70
2018-10-17T01:18:44.683Z,27.90
2018-10-17T01:23:47.991Z,24.93
2018-10-17T01:28:51.384Z,26.50
2018-10-17T01:33:54.703Z,23.30
2018-10-17T01:38:58.031Z,24.87
2018-10-17T01:44:01.326Z,27.63
2018-10-17T01:49:04.742Z,23.67
2018-10-17T01:54:08.125Z,23.63
2018-10-17T01:59:11.620Z,27.57
2018-10-17T02:04:14.774Z,23.07
2018-10-17T02:09:18.079Z,26.70
2018-10-17T02:14:21.407Z,25.60
2018-10-17T02:19:24.727Z,23.97
2018-10-17T02:24:28.067Z,23.57
2018-10-17T02:29:31.443Z,26.73
2018-10-17T02:34:38.935Z,28.33
2018-10-17T02:39:42.291Z,25.03
2018-10-17T02:44:45.603Z,28.40
2018-10-17T02:49:48.928Z,23.83
2018-10-17T02:54:52.551Z,24.93
2018-10-17T02:59:55.873Z,23.43
2018-10-17T03:04:59.292Z,24.07
2018-10-17T03:10:02.657Z,26.53
2018-10-17T03:15:07.257Z,23.87
2018-10-17T03:20:11.331Z,25.45
2018-10-17T03:25:14.677Z,24.20
2018-10-17T03:30:17.952Z,28.60
2018-10-17T03:35:21.405Z,25.43
2018-10-17T03:40:24.668Z,27.90
2018-10-17T03:45:27.965Z,25.57
2018-10-17T03:50:31.265Z,22.77
2018-10-17T03:55:34.596Z,27.83
2018-10-17T04:00:37.997Z,25.40
2018-10-17T04:05:41.313Z,23.73
2018-10-17T04:10:44.635Z,31.07
2018-10-17T04:15:47.959Z,22.17
2018-10-17T04:20:51.248Z,24.40
2018-10-17T04:25:54.600Z,27.23
2018-10-17T04:30:57.962Z,25.00
2018-10-17T04:36:01.295Z,21.87
2018-10-17T04:41:04.620Z,24.67
2018-10-17T04:46:07.948Z,23.17
2018-10-17T04:51:11.297Z,23.57
2018-10-17T04:56:14.627Z,25.70
2018-10-17T05:01:17.940Z,23.60
2018-10-17T05:06:21.223Z,24.83
2018-10-17T05:11:24.520Z,20.30
2018-10-17T05:16:28.007Z,28.97
2018-10-17T05:21:31.311Z,28.43
2018-10-17T05:26:34.646Z,30.83
2018-10-17T05:31:37.927Z,33.10
2018-10-17T05:36:41.228Z,31.37
2018-10-17T05:41:44.584Z,31.97
2018-10-17T05:46:47.886Z,28.47
2018-10-17T05:51:51.312Z,30.77
2018-10-17T05:56:54.619Z,30.10
2018-10-17T06:01:59.170Z,28.90
2018-10-17T06:07:03.429Z,28.80
2018-10-17T06:12:06.824Z,26.37
2018-10-17T06:17:10.146Z,26.67
2018-10-17T06:22:13.412Z,29.20
2018-10-17T06:27:16.692Z,24.50
2018-10-17T06:32:19.978Z,29.53
2018-10-17T06:37:23.264Z,27.70
2018-10-17T06:42:26.589Z,25.73
2018-10-17T06:47:29.864Z,27.13
2018-10-17T06:52:33.175Z,26.23
2018-10-17T06:57:36.604Z,25.53
2018-10-17T07:02:39.904Z,26.53
2018-10-17T07:07:43.241Z,27.00
2018-10-17T07:12:46.556Z,23.80
2018-10-17T07:17:49.873Z,28.40
2018-10-17T07:22:53.196Z,24.00
2018-10-17T07:27:56.536Z,25.53
2018-10-17T07:32:59.832Z,26.43
2018-10-17T07:38:03.152Z,28.03
2018-10-17T07:43:06.606Z,25.87
2018-10-17T07:48:10.074Z,25.10
2018-10-17T07:53:13.827Z,26.13
2018-10-17T07:58:17.406Z,28.40
2018-10-17T08:03:20.993Z,27.00
2018-10-17T08:08:24.481Z,27.33
2018-10-17T08:13:27.856Z,30.50
2018-10-17T08:18:31.587Z,27.23
2018-10-17T08:23:35.197Z,32.00
2018-10-17T08:28:38.556Z,28.37
2018-10-17T08:33:41.949Z,30.77
2018-10-17T08:38:47.629Z,28.98
2018-10-17T08:43:51.028Z,29.70
2018-10-17T08:48:54.359Z,32.00
2018-10-17T08:53:57.677Z,30.80
2018-10-17T08:59:01.023Z,30.00
2018-10-17T09:04:04.411Z,34.27
2018-10-17T09:09:13.318Z,38.23
2018-10-17T09:14:16.735Z,37.20
2018-10-17T09:19:20.047Z,35.73
2018-10-17T09:24:23.879Z,31.65
2018-10-17T09:29:27.737Z,35.85
2018-10-17T09:34:31.843Z,41.85
2018-10-17T09:39:35.833Z,32.45
2018-10-17T09:44:40.042Z,34.65
2018-10-17T09:49:45.095Z,31.35
2018-10-17T09:54:49.046Z,33.67
2018-10-17T09:59:52.491Z,34.23
2018-10-17T10:04:56.009Z,34.80
2018-10-17T10:09:59.602Z,39.10
2018-10-17T10:15:03.427Z,33.18
2018-10-17T10:20:06.975Z,37.25
2018-10-17T10:25:10.372Z,37.08
2018-10-17T10:30:13.851Z,36.43
2018-10-17T10:35:17.150Z,37.47
2018-10-17T10:40:20.571Z,39.10
2018-10-17T10:45:23.936Z,39.60
2018-10-17T10:50:27.521Z,36.70
2018-10-17T10:55:31.135Z,36.03
2018-10-17T11:00:34.815Z,39.45
2018-10-17T11:05:38.408Z,37.58
2018-10-17T11:10:41.593Z,34.80
2018-10-17T11:15:44.919Z,33.92
2018-10-17T11:20:48.285Z,35.58
2018-10-17T11:25:51.998Z,35.28
2018-10-17T11:30:55.543Z,33.65
2018-10-17T11:35:59.132Z,34.15
2018-10-17T11:41:02.696Z,31.80
2018-10-17T11:46:06.220Z,31.60
2018-10-17T11:51:09.797Z,27.77
2018-10-17T11:56:13.246Z,28.85
2018-10-17T12:01:16.781Z,27.48
2018-10-17T12:06:20.199Z,25.53
2018-10-17T12:11:23.532Z,26.82
2018-10-17T12:16:26.835Z,27.00
2018-10-17T12:21:30.224Z,24.12
2018-10-17T12:26:33.649Z,23.73
2018-10-17T12:31:37.025Z,22.52
2018-10-17T12:36:40.378Z,22.22
2018-10-17T12:41:43.837Z,22.22
2018-10-17T12:46:47.075Z,23.85
2018-10-17T12:51:50.399Z,23.18
2018-10-17T12:56:53.684Z,21.90
2018-10-17T13:01:57.320Z,20.52
2018-10-17T13:07:00.753Z,17.70
2018-10-17T13:12:04.073Z,18.77
2018-10-17T13:17:07.438Z,19.55
2018-10-17T13:22:10.709Z,18.83
2018-10-17T13:27:14.038Z,17.17
2018-10-17T13:32:17.324Z,26.00
2018-10-17T13:37:20.718Z,28.05
2018-10-17T13:42:23.955Z,18.97
2018-10-17T13:47:27.287Z,19.32
2018-10-17T13:52:30.612Z,20.35
2018-10-17T13:57:34.014Z,24.07
2018-10-17T14:02:37.292Z,23.27
2018-10-17T14:07:40.583Z,25.43
2018-10-17T14:12:43.896Z,23.10
2018-10-17T14:17:47.188Z,25.17
2018-10-17T14:22:50.551Z,28.80
2018-10-17T14:27:53.832Z,27.32
2018-10-17T14:32:57.315Z,24.37
2018-10-17T14:38:00.664Z,22.82
2018-10-17T14:43:03.929Z,25.60
2018-10-17T14:48:07.514Z,24.95
2018-10-17T14:53:11.282Z,21.48
2018-10-17T14:58:14.662Z,22.25
2018-10-17T15:03:18.099Z,22.10
2018-10-17T15:08:21.426Z,21.17
2018-10-17T15:13:24.853Z,22.40
2018-10-17T15:18:28.406Z,19.85
2018-10-17T15:23:31.817Z,20.20
2018-10-17T15:28:35.214Z,25.65
2018-10-17T15:33:38.974Z,21.10
2018-10-17T15:38:42.378Z,24.63
2018-10-17T15:43:46.195Z,19.40
2018-10-17T15:48:49.734Z,19.70
2018-10-17T15:53:53.247Z,18.70
2018-10-17T15:58:56.596Z,20.43
2018-10-17T16:03:59.940Z,19.75
2018-10-17T16:09:03.307Z,19.50
2018-10-17T16:14:06.721Z,20.35
2018-10-17T16:19:10.076Z,16.97
2018-10-17T16:24:13.464Z,20.77
2018-10-17T16:29:16.754Z,21.85
2018-10-17T16:34:20.285Z,22.30
2018-10-17T16:39:23.668Z,24.57
2018-10-17T16:44:27.023Z,18.12
2018-10-17T16:49:30.351Z,18.98
2018-10-17T16:54:33.727Z,15.60
2018-10-17T16:59:37.044Z,18.60
2018-10-17T17:04:40.413Z,21.23
2018-10-17T17:09:43.745Z,15.50
2018-10-17T17:14:47.133Z,52.78
2018-10-17T17:19:50.458Z,19.73
2018-10-17T17:24:53.841Z,17.30
2018-10-17T17:29:57.171Z,17.73
2018-10-17T17:35:00.762Z,26.15
2018-10-17T17:40:04.384Z,21.23
2018-10-17T17:45:08.216Z,28.07
2018-10-17T17:50:11.737Z,21.23
2018-10-17T17:55:15.027Z,19.27
2018-10-17T18:00:18.338Z,22.17
2018-10-17T18:05:21.851Z,20.55
2018-10-17T18:10:25.177Z,26.27
2018-10-17T18:15:28.477Z,23.10
2018-10-17T18:20:31.782Z,22.60
2018-10-17T18:25:35.206Z,20.63
2018-10-17T18:30:38.513Z,19.10
2018-10-17T18:35:41.842Z,25.33
2018-10-17T18:40:45.267Z,22.07
2018-10-17T18:45:48.652Z,21.70
2018-10-17T18:50:51.997Z,22.80
2018-10-17T18:55:55.342Z,22.50
2018-10-17T19:00:58.665Z,32.50
2018-10-17T19:06:01.961Z,21.07
2018-10-17T19:11:05.514Z,28.67
2018-10-17T19:16:08.943Z,23.20
2018-10-17T19:21:12.290Z,24.63
2018-10-17T19:26:15.539Z,23.97
2018-10-17T19:31:18.859Z,21.87
2018-10-17T19:36:22.154Z,17.87
2018-10-17T19:41:25.451Z,26.17
2018-10-17T19:46:28.937Z,24.93
2018-10-17T19:51:32.320Z,24.47
2018-10-17T19:56:35.704Z,23.20
2018-10-17T20:01:39.151Z,23.23
2018-10-17T20:06:42.437Z,22.60
2018-10-17T20:11:45.847Z,22.93
2018-10-17T20:16:49.147Z,21.83
2018-10-17T20:21:52.482Z,26.87
2018-10-17T20:26:55.973Z,24.37
2018-10-17T20:31:59.309Z,27.53
2018-10-17T20:37:02.728Z,26.27
2018-10-17T20:42:06.435Z,21.10
2018-10-17T20:47:09.790Z,22.53
2018-10-17T20:52:13.192Z,23.40
2018-10-17T20:57:16.561Z,23.50
2018-10-17T21:02:19.900Z,20.07
2018-10-17T21:07:23.312Z,22.13
2018-10-17T21:12:26.661Z,20.40
2018-10-17T21:17:29.961Z,19.27
2018-10-17T21:22:33.253Z,28.30
2018-10-17T21:27:36.525Z,20.97
2018-10-17T21:32:39.845Z,21.57
2018-10-17T21:37:43.190Z,22.27
2018-10-17T21:42:46.467Z,23.70
2018-10-17T21:47:49.770Z,26.83
2018-10-17T21:52:53.078Z,26.77
2018-10-17T21:57:56.361Z,27.87
2018-10-17T22:02:59.671Z,26.47
2018-10-17T22:08:03.014Z,34.93
2018-10-17T22:13:06.356Z,30.20
2018-10-17T22:18:09.654Z,27.70
2018-10-17T22:23:12.955Z,30.83
2018-10-17T22:28:16.296Z,23.10
2018-10-17T22:33:19.616Z,23.70
2018-10-17T22:38:22.941Z,29.03
2018-10-17T22:43:26.415Z,25.67
2018-10-17T22:48:29.809Z,28.93
2018-10-17T22:53:33.123Z,29.90
2018-10-17T22:58:36.420Z,30.40
2018-10-17T23:03:39.736Z,27.30
2018-10-17T23:08:43.059Z,30.83
2018-10-17T23:19:37.064Z,33.93
2018-10-17T23:24:40.392Z,32.93
2018-10-17T23:29:43.697Z,34.93
2018-10-17T23:34:46.992Z,31.42
2018-10-17T23:39:50.301Z,34.70
2018-10-17T23:44:53.611Z,31.73
2018-10-17T23:49:56.981Z,34.10
2018-10-17T23:55:00.249Z,31.63
